Time;durP1;ratioP1;P1;durP2;ratioP2;P2;SDS_P1;SDS_P2;PMS_P1;PMS_P2;Temp;Humidity;BMP_temperature;BMP_pressure;BME280_temperature;BME280_humidity;BME280_pressure;Samples;Min_cycle;Max_cycle;Signal;HPM_P1;HPM_P2
2022/12/24 00:01:13;;;;;;;25.60;6.43;;;;;;;8.80;100.00;100509.94;5039555;28;20025;-66
2022/12/24 00:03:38;;;;;;;28.00;7.07;;;;;;;8.75;100.00;100502.03;5030910;28;20052;-67
2022/12/24 00:06:12;;;;;;;32.03;7.97;;;;;;;8.74;100.00;100509.75;5040708;28;20050;-66
2022/12/24 00:08:37;;;;;;;32.25;6.97;;;;;;;8.72;100.00;100511.38;5010510;28;20484;-66
2022/12/24 00:11:03;;;;;;;26.33;7.93;;;;;;;8.70;100.00;100513.03;5011256;28;20068;-67
2022/12/24 00:13:28;;;;;;;29.70;7.75;;;;;;;8.68;100.00;100512.09;5029723;28;20389;-66
2022/12/24 00:15:53;;;;;;;20.95;6.45;;;;;;;8.65;100.00;100516.31;5029039;28;20021;-67
2022/12/24 00:18:19;;;;;;;31.48;8.82;;;;;;;8.64;100.00;100517.16;5029238;28;20033;-66
2022/12/24 00:20:46;;;;;;;25.75;6.90;;;;;;;8.63;100.00;100512.81;5029027;28;20014;-66
2022/12/24 00:23:12;;;;;;;34.80;7.28;;;;;;;8.63;100.00;100517.97;5031049;28;20120;-66
2022/12/24 00:25:37;;;;;;;25.60;8.40;;;;;;;8.61;100.00;100527.41;5017678;28;20141;-66
2022/12/24 00:28:02;;;;;;;29.73;7.80;;;;;;;8.61;100.00;100532.56;5016826;28;20029;-66
2022/12/24 00:30:28;;;;;;;26.90;7.88;;;;;;;8.62;100.00;100528.25;5016387;28;20030;-67
2022/12/24 00:32:53;;;;;;;25.30;7.47;;;;;;;8.61;100.00;100535.16;5009267;28;20109;-66
2022/12/24 00:35:18;;;;;;;33.17;8.10;;;;;;;8.60;100.00;100537.69;5009924;28;20038;-67
2022/12/24 00:37:46;;;;;;;36.75;7.55;;;;;;;8.61;100.00;100534.25;5029566;28;20021;-66
2022/12/24 00:40:11;;;;;;;23.35;6.65;;;;;;;8.63;100.00;100538.63;5015203;28;20072;-67
2022/12/24 00:42:37;;;;;;;24.60;7.80;;;;;;;8.63;100.00;100548.13;5009451;28;20053;-66
2022/12/24 00:45:03;;;;;;;25.45;8.43;;;;;;;8.62;100.00;100546.34;5007424;28;20025;-66
2022/12/24 00:47:28;;;;;;;24.98;7.28;;;;;;;8.61;100.00;100553.22;5015270;28;20033;-67
2022/12/24 00:49:54;;;;;;;19.15;5.68;;;;;;;8.61;100.00;100558.41;5029004;28;20032;-66
2022/12/24 00:52:19;;;;;;;26.50;7.40;;;;;;;8.61;100.00;100560.09;5027313;28;20474;-67
2022/12/24 00:54:44;;;;;;;27.58;6.50;;;;;;;8.63;100.00;100572.22;5027572;28;20109;-66
2022/12/24 00:57:09;;;;;;;26.55;6.70;;;;;;;8.63;100.00;100579.97;5028323;28;20033;-66
2022/12/24 00:59:35;;;;;;;26.17;7.60;;;;;;;8.63;100.00;100572.22;5028714;28;20456;-66
2022/12/24 01:02:00;;;;;;;24.15;5.93;;;;;;;8.63;100.00;100582.56;5027864;28;20032;-67
2022/12/24 01:07:09;;;;;;;25.20;6.72;;;;;;;8.61;100.00;100586.81;5028891;28;20045;-66
2022/12/24 01:09:34;;;;;;;25.60;6.35;;;;;;;8.62;100.00;100585.09;5026383;28;20033;-66
2022/12/24 01:12:00;;;;;;;24.55;6.50;;;;;;;8.61;100.00;100586.81;5009135;28;20100;-66
2022/12/24 01:14:25;;;;;;;21.45;7.25;;;;;;;8.61;100.00;100589.41;5009081;28;20034;-66
2022/12/24 01:16:50;;;;;;;25.42;7.03;;;;;;;8.60;100.00;100594.50;5020629;28;20285;-67
2022/12/24 01:19:15;;;;;;;32.53;7.78;;;;;;;8.59;100.00;100595.31;5011104;28;20026;-66
2022/12/24 01:21:41;;;;;;;24.73;6.30;;;;;;;8.56;100.00;100596.09;5014106;28;20029;-67
2022/12/24 01:24:06;;;;;;;23.27;6.82;;;;;;;8.56;100.00;100602.97;5035106;28;20025;-67
2022/12/24 01:26:31;;;;;;;28.02;7.00;;;;;;;8.54;100.00;100597.72;5009279;28;20034;-67
2022/12/24 01:28:58;;;;;;;22.45;6.63;;;;;;;8.51;100.00;100613.06;5022980;28;20040;-66
2022/12/24 01:31:23;;;;;;;24.98;7.00;;;;;;;8.46;100.00;100612.91;5020905;28;20041;-66
2022/12/24 01:33:49;;;;;;;34.72;7.90;;;;;;;8.45;100.00;100615.44;5008754;28;20030;-66
2022/12/24 01:36:14;;;;;;;25.60;8.15;;;;;;;8.40;100.00;100613.56;5009523;28;20022;-66
2022/12/24 01:38:40;;;;;;;28.75;6.80;;;;;;;8.42;100.00;100618.78;5022072;28;20826;-66
2022/12/24 01:43:50;;;;;;;27.13;7.13;;;;;;;8.39;100.00;100616.97;5010167;28;20494;-66
2022/12/24 01:46:16;;;;;;;28.17;7.53;;;;;;;8.37;100.00;100628.94;5018566;28;20017;-66
2022/12/24 01:48:45;;;;;;;31.10;7.63;;;;;;;8.33;100.00;100632.22;5010667;28;20033;-66
2022/12/24 01:51:24;;;;;;;32.65;7.88;;;;;;;8.31;100.00;100633.00;5008347;28;20053;-66
2022/12/24 01:54:02;;;;;;;30.80;7.57;;;;;;;8.30;100.00;100637.28;5006477;28;20026;-67
2022/12/24 01:56:29;;;;;;;21.52;6.93;;;;;;;8.27;100.00;100638.03;5020897;28;20033;-67
2022/12/24 01:58:59;;;;;;;32.25;6.93;;;;;;;8.28;100.00;100639.81;5020505;28;20367;-66
2022/12/24 02:01:24;;;;;;;31.83;6.68;;;;;;;8.28;100.00;100644.97;5008731;28;20115;-66
2022/12/24 02:03:49;;;;;;;25.77;6.50;;;;;;;8.28;100.00;100644.97;5027587;28;20029;-66
2022/12/24 02:06:16;;;;;;;32.25;7.97;;;;;;;8.31;100.00;100645.91;5027257;28;20057;-66
2022/12/24 02:08:42;;;;;;;28.42;7.95;;;;;;;8.31;100.00;100659.69;5027649;28;20533;-67
2022/12/24 02:11:18;;;;;;;32.22;7.75;;;;;;;8.33;100.00;100652.88;5027291;28;20121;-66
2022/12/24 02:13:46;;;;;;;30.38;7.43;;;;;;;8.35;100.00;100661.56;5035995;28;20417;-66
2022/12/24 02:16:32;;;;;;;30.40;8.18;;;;;;;8.36;100.00;100659.88;5028780;28;20493;-67
2022/12/24 02:19:18;;;;;;;33.25;7.55;;;;;;;8.37;100.00;100664.19;5026577;28;20041;-66
2022/12/24 02:21:46;;;;;;;36.85;7.55;;;;;;;8.38;100.00;100671.16;5027176;28;20033;-67
2022/12/24 02:25:01;;;;;;;22.65;6.72;;;;;;;8.37;100.00;100671.94;5035259;28;20022;-67
2022/12/24 02:27:54;;;;;;;33.38;7.47;;;;;;;8.38;100.00;100661.69;4974265;28;20383;-66
2022/12/24 02:30:30;;;;;;;31.95;7.30;;;;;;;8.38;100.00;100666.84;5026953;28;20039;-66
2022/12/24 02:33:06;;;;;;;30.98;7.70;;;;;;;8.38;100.00;100674.59;5020679;28;20347;-66
2022/12/24 02:35:55;;;;;;;37.53;8.27;;;;;;;8.39;100.00;100666.03;5008475;28;20588;-66
2022/12/24 02:38:29;;;;;;;30.65;7.53;;;;;;;8.39;100.00;100673.78;5007918;28;20065;-67
2022/12/24 02:41:04;;;;;;;30.02;7.07;;;;;;;8.41;100.00;100676.41;5021117;28;20037;-66
2022/12/24 02:43:34;;;;;;;28.52;6.05;;;;;;;8.43;100.00;100679.06;5009675;28;20122;-66
2022/12/24 02:46:06;;;;;;;36.42;7.55;;;;;;;8.46;100.00;100674.00;5008315;28;20502;-66
2022/12/24 02:48:34;;;;;;;29.73;7.75;;;;;;;8.46;100.00;100671.41;5009281;28;20049;-67
2022/12/24 02:51:07;;;;;;;25.08;7.03;;;;;;;8.46;100.00;100682.63;5016783;28;20064;-67
2022/12/24 02:53:34;;;;;;;23.13;5.82;;;;;;;8.48;100.00;100682.69;5016199;28;20025;-67
2022/12/24 02:56:33;;;;;;;32.92;6.78;;;;;;;8.47;100.00;100683.53;5024853;28;20543;-66
2022/12/24 02:59:12;;;;;;;34.00;7.78;;;;;;;8.48;100.00;100678.41;5019877;28;20025;-67
2022/12/24 03:01:54;;;;;;;30.70;6.68;;;;;;;8.48;100.00;100672.38;5021405;28;20030;-67
2022/12/24 03:04:40;;;;;;;30.42;6.28;;;;;;;8.47;100.00;100678.38;5021497;28;20030;-66
2022/12/24 03:07:14;;;;;;;26.20;7.38;;;;;;;8.48;100.00;100677.53;5016999;28;20033;-66
2022/12/24 03:09:55;;;;;;;30.15;6.10;;;;;;;8.47;100.00;100680.94;5023546;28;20025;-66
2022/12/24 03:12:29;;;;;;;31.55;7.80;;;;;;;8.48;100.00;100680.09;5016350;28;20030;-66
2022/12/24 03:14:54;;;;;;;29.60;6.82;;;;;;;8.46;100.00;100684.31;5010329;28;20060;-66
2022/12/24 03:17:20;;;;;;;27.73;8.07;;;;;;;8.46;100.00;100685.22;5023017;28;20473;-66
2022/12/24 03:19:46;;;;;;;21.98;6.22;;;;;;;8.46;100.00;100689.50;5013266;28;20021;-65
2022/12/24 03:22:13;;;;;;;32.88;7.70;;;;;;;8.47;100.00;100692.13;5027186;28;20029;-66
2022/12/24 03:24:38;;;;;;;30.27;7.78;;;;;;;8.49;100.00;100694.81;5025752;28;20064;-66
2022/12/24 03:27:07;;;;;;;27.27;6.25;;;;;;;8.50;100.00;100681.06;5026685;28;20572;-67
2022/12/24 03:29:33;;;;;;;24.42;5.45;;;;;;;8.51;100.00;100682.81;5025064;28;20021;-65
2022/12/24 03:32:01;;;;;;;30.58;7.68;;;;;;;8.52;100.00;100689.75;5025585;28;20025;-65
2022/12/24 03:34:26;;;;;;;19.48;5.97;;;;;;;8.52;100.00;100690.63;5021399;28;20022;-66
2022/12/24 03:36:51;;;;;;;27.80;7.85;;;;;;;8.57;100.00;100695.09;5015020;28;20033;-65
2022/12/24 03:39:16;;;;;;;25.52;6.90;;;;;;;8.59;100.00;100702.09;5023420;28;20034;-65
2022/12/24 03:41:42;;;;;;;22.67;6.68;;;;;;;8.59;100.00;100699.53;5028233;28;20384;-65
2022/12/24 03:44:07;;;;;;;31.73;7.47;;;;;;;8.61;100.00;100705.63;5025438;28;20132;-67
2022/12/24 03:46:32;;;;;;;28.45;7.75;;;;;;;8.62;100.00;100702.22;5026405;28;20025;-66
2022/12/24 03:48:58;;;;;;;23.25;6.28;;;;;;;8.61;100.00;100705.63;5027540;28;20025;-68
2022/12/24 03:51:24;;;;;;;25.42;6.35;;;;;;;8.64;100.00;100716.06;5026179;28;20049;-66
2022/12/24 03:53:54;;;;;;;19.25;5.68;;;;;;;8.66;100.00;100713.53;5027820;28;20485;-67
2022/12/24 03:56:20;;;;;;;24.35;6.25;;;;;;;8.67;100.00;100704.97;5027130;28;20029;-66
2022/12/24 03:58:45;;;;;;;21.27;6.10;;;;;;;8.69;100.00;100713.66;5035761;28;20421;-66
2022/12/24 04:01:10;;;;;;;32.17;6.97;;;;;;;8.69;100.00;100712.78;5022168;28;20032;-66
2022/12/24 04:03:36;;;;;;;26.60;7.13;;;;;;;8.72;100.00;100715.47;5025446;28;20022;-67
2022/12/24 04:06:06;;;;;;;25.02;6.30;;;;;;;8.70;100.00;100714.53;5027632;28;20043;-66
2022/12/24 04:08:32;;;;;;;27.65;7.70;;;;;;;8.72;100.00;100715.47;5033182;28;20114;-66
2022/12/24 04:10:58;;;;;;;23.40;6.40;;;;;;;8.71;100.00;100711.13;5027352;28;20438;-66
2022/12/24 04:13:23;;;;;;;25.55;6.38;;;;;;;8.72;100.00;100712.91;5029617;28;20029;-67
2022/12/24 04:16:10;;;;;;;19.50;5.88;;;;;;;8.72;100.00;100724.13;5009906;28;20124;-66
2022/12/24 04:18:36;;;;;;;25.45;7.10;;;;;;;8.74;100.00;100726.75;5024044;28;20036;-66
2022/12/24 04:21:01;;;;;;;23.05;6.65;;;;;;;8.73;100.00;100730.16;5028439;28;20099;-66
2022/12/24 04:23:30;;;;;;;26.42;6.60;;;;;;;8.73;100.00;100727.56;5034795;28;20140;-66
2022/12/24 04:25:57;;;;;;;26.88;6.82;;;;;;;8.72;100.00;100736.16;5037149;28;20152;-66
2022/12/24 04:28:22;;;;;;;18.05;5.95;;;;;;;8.73;100.00;100740.47;5028236;28;20053;-67
2022/12/24 04:30:48;;;;;;;26.33;5.70;;;;;;;8.71;100.00;100727.50;5019897;28;20521;-66
2022/12/24 04:33:13;;;;;;;19.42;6.95;;;;;;;8.73;100.00;100730.16;5009556;28;20022;-66
2022/12/24 04:35:42;;;;;;;30.52;6.47;;;;;;;8.72;100.00;100733.56;5009403;28;20124;-67
2022/12/24 04:38:08;;;;;;;25.02;5.70;;;;;;;8.72;100.00;100729.28;5009913;28;20212;-67
2022/12/24 04:40:34;;;;;;;26.48;6.85;;;;;;;8.71;100.00;100734.38;5025419;28;20033;-66
2022/12/24 04:42:59;;;;;;;26.42;6.93;;;;;;;8.69;100.00;100742.06;5019120;28;20124;-66
2022/12/24 04:45:25;;;;;;;21.98;6.35;;;;;;;8.71;100.00;100744.72;5010376;28;20030;-66
2022/12/24 04:47:50;;;;;;;25.98;6.13;;;;;;;8.69;100.00;100743.78;5009826;28;20037;-66
2022/12/24 04:50:15;;;;;;;23.77;7.88;;;;;;;8.68;100.00;100739.44;5009508;28;20045;-66
2022/12/24 04:52:40;;;;;;;26.08;8.23;;;;;;;8.67;100.00;100742.84;5010043;28;20040;-66
2022/12/24 04:55:06;;;;;;;26.60;8.48;;;;;;;8.64;100.00;100741.91;5009656;28;20030;-66
2022/12/24 04:57:34;;;;;;;22.60;6.57;;;;;;;8.62;100.00;100756.47;5019257;28;20033;-67
2022/12/24 05:00:00;;;;;;;26.20;6.40;;;;;;;8.59;100.00;100753.78;5016047;28;20585;-66
2022/12/24 05:02:25;;;;;;;32.38;6.85;;;;;;;8.59;100.00;100764.09;5019305;28;20144;-66
2022/12/24 05:04:50;;;;;;;23.98;6.63;;;;;;;8.57;100.00;100760.56;5008482;28;20069;-66
2022/12/24 05:07:15;;;;;;;27.30;5.78;;;;;;;8.57;100.00;100759.69;5008732;28;20651;-66
2022/12/24 05:09:41;;;;;;;21.05;6.60;;;;;;;8.59;100.00;100761.50;5009127;28;20030;-66
2022/12/24 05:12:06;;;;;;;31.38;6.00;;;;;;;8.59;100.00;100763.22;5023392;28;20033;-66
2022/12/24 05:14:32;;;;;;;23.73;5.90;;;;;;;8.59;100.00;100773.53;5028697;28;20087;-66
2022/12/24 05:16:57;;;;;;;27.58;6.35;;;;;;;8.59;100.00;100770.97;5034282;28;20045;-66
2022/12/24 05:19:22;;;;;;;19.80;4.97;;;;;;;8.59;100.00;100768.38;5035693;28;20034;-66
2022/12/24 05:26:20;;;;;;;25.17;6.55;;;;;;;8.59;100.00;100761.50;5027320;28;20029;-66
2022/12/24 05:27:17;;;;;;;25.42;5.78;;;;;;;8.57;100.00;100754.50;5027563;28;20044;-67
2022/12/24 05:29:42;;;;;;;28.40;6.03;;;;;;;8.55;100.00;100749.25;5021043;28;20390;-66
2022/12/24 05:32:07;;;;;;;21.02;5.88;;;;;;;8.53;100.00;100749.19;5020588;28;20683;-66
2022/12/24 05:34:32;;;;;;;20.75;6.05;;;;;;;8.53;100.00;100753.47;5021247;28;20041;-66
2022/12/24 05:36:58;;;;;;;29.70;6.50;;;;;;;8.53;100.00;100754.38;5020154;28;20033;-66
2022/12/24 05:39:23;;;;;;;20.92;6.00;;;;;;;8.52;100.00;100756.91;5014138;28;20046;-66
2022/12/24 05:41:48;;;;;;;28.45;6.57;;;;;;;8.50;100.00;100755.94;5020170;28;20443;-66
2022/12/24 05:44:15;;;;;;;22.75;5.25;;;;;;;8.48;100.00;100770.50;5021050;28;20033;-66
2022/12/24 05:46:40;;;;;;;25.30;6.07;;;;;;;8.46;100.00;100766.97;5019514;28;20073;-66
2022/12/24 05:49:05;;;;;;;25.23;5.20;;;;;;;8.46;100.00;100769.56;5013883;28;20030;-66
2022/12/24 05:51:30;;;;;;;28.42;6.05;;;;;;;8.46;100.00;100782.47;5019988;28;20363;-66
2022/12/24 05:53:56;;;;;;;25.88;5.45;;;;;;;8.45;100.00;100788.47;5024285;28;20470;-67
2022/12/24 05:56:22;;;;;;;27.45;6.53;;;;;;;8.44;100.00;100795.31;5020457;28;20032;-66
2022/12/24 05:58:50;;;;;;;37.80;7.65;;;;;;;8.44;100.00;100799.63;5016917;28;20052;-66
2022/12/24 06:01:16;;;;;;;29.30;7.10;;;;;;;8.44;100.00;100807.38;5021069;28;20025;-65
2022/12/24 06:03:41;;;;;;;23.20;6.50;;;;;;;8.45;100.00;100796.22;5022605;28;20382;-66
2022/12/24 06:06:10;;;;;;;26.70;6.57;;;;;;;8.45;100.00;100801.38;5020970;28;20458;-66
2022/12/24 06:08:38;;;;;;;24.73;5.95;;;;;;;8.45;100.00;100806.53;5015988;28;20034;-66
2022/12/24 06:11:05;;;;;;;32.60;7.65;;;;;;;8.45;100.00;100811.72;5008192;28;20025;-67
2022/12/24 06:13:31;;;;;;;29.55;6.20;;;;;;;8.44;100.00;100804.78;5008271;28;20124;-67
2022/12/24 06:15:58;;;;;;;26.75;7.68;;;;;;;8.44;100.00;100804.78;5014611;28;20100;-67
2022/12/24 06:18:24;;;;;;;25.88;7.18;;;;;;;8.41;100.00;100805.53;5013765;28;20065;-66
2022/12/24 06:20:53;;;;;;;28.38;6.85;;;;;;;8.40;100.00;100809.81;5008471;28;20467;-67
2022/12/24 06:23:19;;;;;;;21.27;6.93;;;;;;;8.39;100.00;100808.06;5022405;28;20615;-66
2022/12/24 06:25:45;;;;;;;28.85;7.40;;;;;;;8.40;100.00;100808.94;5030108;28;20030;-66
2022/12/24 06:28:10;;;;;;;22.13;6.35;;;;;;;8.39;100.00;100808.06;5018224;28;20024;-66
2022/12/24 06:30:36;;;;;;;16.75;5.85;;;;;;;8.36;100.00;100813.13;5026677;28;20021;-66
2022/12/24 06:33:01;;;;;;;26.35;6.75;;;;;;;8.36;100.00;100815.69;5025878;28;20052;-67
2022/12/24 06:35:26;;;;;;;30.08;6.78;;;;;;;8.34;100.00;100829.34;5022441;28;20079;-66
2022/12/24 06:37:51;;;;;;;26.15;6.40;;;;;;;8.32;100.00;100826.72;5008472;28;20061;-66
2022/12/24 06:40:17;;;;;;;32.83;8.00;;;;;;;8.29;100.00;100832.59;5033214;28;20041;-66
2022/12/24 06:42:42;;;;;;;23.27;6.35;;;;;;;8.28;100.00;100835.13;5009710;28;20112;-67
2022/12/24 06:45:08;;;;;;;32.88;7.25;;;;;;;8.26;100.00;100836.75;5014362;28;20088;-66
2022/12/24 06:47:33;;;;;;;30.42;6.43;;;;;;;8.23;100.00;100831.47;5014146;28;20037;-66
2022/12/24 06:49:58;;;;;;;22.25;6.72;;;;;;;8.21;100.00;100838.28;5026932;28;20044;-66
2022/12/24 06:52:24;;;;;;;31.13;7.93;;;;;;;8.19;100.00;100835.63;5017227;28;20030;-66
2022/12/24 06:54:49;;;;;;;25.75;7.18;;;;;;;8.18;100.00;100833.88;5021899;28;20022;-66
2022/12/24 06:57:14;;;;;;;26.60;7.50;;;;;;;8.16;100.00;100831.25;5015677;28;20109;-66
2022/12/24 06:59:39;;;;;;;25.90;7.20;;;;;;;8.16;100.00;100843.25;5011226;28;20564;-67
2022/12/24 07:02:05;;;;;;;31.25;7.75;;;;;;;8.15;100.00;100851.81;5020546;28;20025;-66
2022/12/24 07:04:30;;;;;;;29.90;7.32;;;;;;;8.17;100.00;100848.47;5027105;28;20029;-67
2022/12/24 07:06:56;;;;;;;28.17;6.78;;;;;;;8.20;100.00;100849.44;5020880;28;20057;-67
2022/12/24 07:09:21;;;;;;;23.40;6.85;;;;;;;8.20;100.00;100852.00;5022870;28;20463;-67
2022/12/24 07:11:46;;;;;;;20.92;7.20;;;;;;;8.21;100.00;100848.59;5018352;28;20017;-66
2022/12/24 07:14:11;;;;;;;23.27;6.82;;;;;;;8.20;100.00;100852.91;5016280;28;20108;-66
2022/12/24 07:16:37;;;;;;;27.13;7.03;;;;;;;8.20;100.00;100852.00;5020783;28;20140;-66
2022/12/24 07:19:02;;;;;;;33.13;7.78;;;;;;;8.20;100.00;100862.34;5015539;28;20462;-67
2022/12/24 07:21:27;;;;;;;25.92;7.50;;;;;;;8.18;100.00;100859.69;5011993;28;20145;-66
2022/12/24 07:23:53;;;;;;;28.13;8.23;;;;;;;8.18;100.00;100864.88;5016021;28;20103;-66
2022/12/24 07:26:18;;;;;;;28.23;7.38;;;;;;;8.19;100.00;100865.72;5020174;28;20029;-66
2022/12/24 07:28:43;;;;;;;31.40;7.00;;;;;;;8.16;100.00;100862.22;5013985;28;20138;-67
2022/12/24 07:31:08;;;;;;;28.05;6.97;;;;;;;8.17;100.00;100876.88;5007996;28;20532;-66
2022/12/24 07:33:34;;;;;;;27.35;7.07;;;;;;;8.16;100.00;100881.97;5011332;28;20033;-66
2022/12/24 07:36:05;;;;;;;22.65;6.20;;;;;;;8.15;100.00;100881.09;5011253;28;20087;-67
2022/12/24 07:38:32;;;;;;;27.35;7.10;;;;;;;8.13;100.00;100882.72;5009651;28;20505;-66
2022/12/24 07:40:58;;;;;;;36.75;7.25;;;;;;;8.13;100.00;100887.88;5014493;28;20570;-66
2022/12/24 07:43:24;;;;;;;24.98;6.65;;;;;;;8.14;100.00;100892.25;5013438;28;20091;-66
2022/12/24 07:45:49;;;;;;;30.20;8.43;;;;;;;8.14;100.00;100888.78;5010664;28;20025;-66
2022/12/24 07:48:15;;;;;;;24.98;7.95;;;;;;;8.10;100.00;100898.09;5011210;28;20040;-66
2022/12/24 07:50:41;;;;;;;35.17;7.35;;;;;;;8.10;100.00;100897.19;5019894;28;20065;-67
2022/12/24 07:53:06;;;;;;;25.27;6.22;;;;;;;8.07;100.00;100897.97;5019224;28;20068;-67
2022/12/24 07:55:31;;;;;;;36.60;8.15;;;;;;;8.08;100.00;100904.88;5018886;28;20080;-67
2022/12/24 07:57:56;;;;;;;26.80;6.82;;;;;;;8.08;100.00;100912.63;5014544;28;20443;-67
2022/12/24 08:00:22;;;;;;;20.50;6.57;;;;;;;8.08;100.00;100915.19;5011275;28;20030;-66
2022/12/24 08:02:47;;;;;;;28.50;7.00;;;;;;;8.09;100.00;100926.41;5011500;28;20022;-66
2022/12/24 08:05:12;;;;;;;29.63;6.53;;;;;;;8.08;100.00;100929.81;5011741;28;20029;-67
2022/12/24 08:07:38;;;;;;;37.70;7.72;;;;;;;8.08;100.00;100935.84;5017381;28;20104;-66
2022/12/24 08:10:03;;;;;;;30.48;6.75;;;;;;;8.11;100.00;100938.56;5024889;28;20075;-66
2022/12/24 08:12:29;;;;;;;25.33;6.43;;;;;;;8.11;100.00;100937.69;5017254;28;20034;-66
2022/12/24 08:14:54;;;;;;;30.75;6.85;;;;;;;8.12;100.00;100945.50;5012838;28;20105;-66
2022/12/24 08:17:19;;;;;;;27.90;7.05;;;;;;;8.13;100.00;100949.84;5017862;28;20389;-66
2022/12/24 08:19:45;;;;;;;33.15;6.95;;;;;;;8.14;100.00;100954.19;5011835;28;20113;-67
2022/12/24 08:22:10;;;;;;;28.45;6.47;;;;;;;8.16;100.00;100956.84;5024441;28;20445;-66
2022/12/24 08:24:36;;;;;;;23.63;6.10;;;;;;;8.17;100.00;100961.19;5012266;28;20040;-66
2022/12/24 08:27:01;;;;;;;25.92;7.00;;;;;;;8.19;100.00;100963.81;5012664;28;20348;-66
2022/12/24 08:29:27;;;;;;;22.50;6.53;;;;;;;8.17;100.00;100972.41;5020585;28;20076;-66
2022/12/24 08:31:52;;;;;;;29.75;6.72;;;;;;;8.17;100.00;100967.22;5010565;28;20025;-67
2022/12/24 08:34:17;;;;;;;26.85;7.28;;;;;;;8.17;100.00;100972.41;5024372;28;20025;-66
2022/12/24 08:36:43;;;;;;;23.70;7.28;;;;;;;8.19;100.00;100979.31;5015541;28;20061;-67
2022/12/24 08:39:08;;;;;;;28.92;6.55;;;;;;;8.20;100.00;100979.41;5011343;28;20021;-66
2022/12/24 08:41:34;;;;;;;34.25;6.32;;;;;;;8.21;100.00;100976.00;5007481;28;20029;-67
2022/12/24 08:43:59;;;;;;;25.13;6.18;;;;;;;8.23;100.00;100983.81;5012726;28;20578;-66
2022/12/24 08:46:25;;;;;;;32.60;7.07;;;;;;;8.23;100.00;100984.69;5021652;28;20107;-66
2022/12/24 08:48:50;;;;;;;26.25;6.53;;;;;;;8.24;100.00;100983.88;5014565;28;20425;-66
2022/12/24 08:51:17;;;;;;;26.70;7.32;;;;;;;8.24;100.00;100985.59;5007491;28;20046;-67
2022/12/24 08:53:43;;;;;;;29.38;7.70;;;;;;;8.26;100.00;100986.50;5010525;28;20145;-66
2022/12/24 08:56:10;;;;;;;32.45;7.43;;;;;;;8.27;100.00;100996.91;5009214;28;20061;-66
2022/12/24 08:58:35;;;;;;;25.77;6.72;;;;;;;8.26;100.00;100991.66;5016372;28;20037;-66
2022/12/24 09:01:01;;;;;;;27.77;6.68;;;;;;;8.28;100.00;100997.78;5019189;28;20102;-67
2022/12/24 09:03:26;;;;;;;27.20;6.82;;;;;;;8.29;100.00;100991.84;5018924;28;20037;-66
2022/12/24 09:05:52;;;;;;;29.13;8.07;;;;;;;8.30;100.00;101006.50;5014788;28;20065;-66
2022/12/24 09:08:19;;;;;;;36.33;7.22;;;;;;;8.31;100.00;101013.41;5018985;28;20219;-67
2022/12/24 09:10:44;;;;;;;20.27;6.43;;;;;;;8.32;100.00;101012.63;5031666;28;20018;-66
2022/12/24 09:13:09;;;;;;;27.55;6.75;;;;;;;8.32;100.00;101028.09;5025437;28;20051;-66
2022/12/24 09:15:34;;;;;;;27.48;7.20;;;;;;;8.33;100.00;101029.88;5015464;28;20037;-66
2022/12/24 09:18:00;;;;;;;27.67;7.60;;;;;;;8.34;100.00;101026.47;5012490;28;20030;-66
2022/12/24 09:20:25;;;;;;;22.80;5.65;;;;;;;8.35;100.00;101033.41;5015991;28;20038;-67
2022/12/24 09:22:51;;;;;;;29.23;6.82;;;;;;;8.37;100.00;101046.38;5018577;28;20128;-67
2022/12/24 09:25:16;;;;;;;33.05;7.53;;;;;;;8.40;100.00;101051.69;5019587;28;20056;-66
2022/12/24 09:27:41;;;;;;;30.80;7.05;;;;;;;8.43;100.00;101061.25;5016848;28;20033;-66
2022/12/24 09:30:07;;;;;;;30.45;7.78;;;;;;;8.48;100.00;101064.94;5020316;28;20393;-66
2022/12/24 09:32:33;;;;;;;28.92;7.13;;;;;;;8.53;100.00;101061.75;5017446;28;20026;-67
2022/12/24 09:34:58;;;;;;;22.48;5.70;;;;;;;8.57;100.00;101062.78;5016456;28;20238;-66
2022/12/24 09:37:24;;;;;;;21.90;6.63;;;;;;;8.61;100.00;101061.22;5012727;28;20044;-66
2022/12/24 09:39:49;;;;;;;25.63;7.95;;;;;;;8.67;100.00;101070.97;5010876;28;20038;-67
2022/12/24 09:42:45;;;;;;;28.85;6.72;;;;;;;8.73;100.00;101066.03;5010380;28;20029;-67
2022/12/24 09:45:29;;;;;;;26.63;7.10;;;;;;;8.75;100.00;101065.31;5014775;28;20524;-66
2022/12/24 09:47:58;;;;;;;26.70;6.38;;;;;;;8.79;100.00;101070.59;5011538;28;20450;-66
2022/12/24 09:50:42;;;;;;;32.05;7.15;;;;;;;8.83;100.00;101086.28;5014327;28;20049;-67
2022/12/24 09:53:49;;;;;;;28.65;6.75;;;;;;;8.87;100.00;101085.59;5019357;28;20505;-67
2022/12/24 09:56:19;;;;;;;29.63;7.60;;;;;;;8.89;100.00;101077.91;5018059;28;20036;-67
2022/12/24 09:58:48;;;;;;;22.00;6.80;;;;;;;8.89;100.00;101083.97;5019145;28;20032;-67
2022/12/24 10:01:16;;;;;;;30.45;7.10;;;;;;;8.89;100.00;101085.66;5018361;28;20056;-67
2022/12/24 10:03:42;;;;;;;30.48;7.20;;;;;;;8.89;100.00;101091.72;5019014;28;20060;-65
2022/12/24 10:06:15;;;;;;;29.15;7.10;;;;;;;8.90;100.00;101105.53;5032444;28;20091;-65
2022/12/24 10:09:01;;;;;;;26.13;6.63;;;;;;;8.91;100.00;101096.06;5012514;28;20018;-65
2022/12/24 10:11:32;;;;;;;22.88;7.38;;;;;;;8.93;100.00;101095.34;5015692;28;20036;-65
2022/12/24 10:14:31;;;;;;;26.20;7.60;;;;;;;8.95;100.00;101103.16;5011405;28;20017;-65
2022/12/24 10:17:15;;;;;;;24.45;8.20;;;;;;;8.95;100.00;101109.22;5025004;28;20025;-65
2022/12/24 10:19:51;;;;;;;23.08;7.70;;;;;;;8.95;100.00;101104.03;5024428;28;20024;-65
2022/12/24 10:22:39;;;;;;;28.40;7.57;;;;;;;8.96;100.00;101100.63;5023677;28;20025;-65
2022/12/24 10:25:19;;;;;;;30.45;8.02;;;;;;;8.96;100.00;101099.75;5025208;28;20530;-65
2022/12/24 10:27:45;;;;;;;29.92;7.18;;;;;;;8.97;100.00;101091.19;5025810;28;20036;-65
2022/12/24 10:30:15;;;;;;;23.30;8.10;;;;;;;8.98;100.00;101092.94;5014820;28;20382;-64
2022/12/24 10:32:41;;;;;;;23.73;7.85;;;;;;;9.00;100.00;101091.31;5006201;28;20026;-64
2022/12/24 10:35:12;;;;;;;26.35;7.65;;;;;;;9.01;100.00;101093.09;5017766;28;20563;-64
2022/12/24 10:37:39;;;;;;;;;;;;;;;9.01;100.00;101088.78;5008665;28;20113;-65
2022/12/24 10:40:05;;;;;;;27.13;8.52;;;;;;;9.04;100.00;101103.56;5007252;28;19916;-65
2022/12/24 10:42:41;;;;;;;27.63;7.88;;;;;;;9.05;100.00;101105.31;5025547;28;20047;-65
2022/12/24 10:45:14;;;;;;;24.85;6.53;;;;;;;9.07;100.00;101100.19;5026746;28;20033;-65
2022/12/24 10:47:42;;;;;;;24.90;6.05;;;;;;;9.09;100.00;101106.31;5014394;28;20366;-65
2022/12/24 10:50:36;;;;;;;24.80;7.20;;;;;;;9.13;100.00;101109.13;5026049;28;20128;-65
2022/12/24 10:53:23;;;;;;;26.90;6.47;;;;;;;9.22;100.00;101097.38;5027085;28;20175;-65
2022/12/24 10:55:48;;;;;;;28.80;7.03;;;;;;;9.33;100.00;101105.59;5015757;28;20029;-64
2022/12/24 10:58:17;;;;;;;24.50;7.63;;;;;;;9.36;100.00;101101.44;5026059;28;20075;-64
2022/12/24 11:00:49;;;;;;;27.80;7.25;;;;;;;9.40;100.00;101098.97;5026697;28;20053;-65
2022/12/24 11:03:17;;;;;;;26.83;6.93;;;;;;;9.44;100.00;101103.44;5011377;28;20033;-64
2022/12/24 11:05:43;;;;;;;28.27;8.00;;;;;;;9.44;100.00;101098.28;5007590;28;20061;-65
2022/12/24 11:08:11;;;;;;;28.20;6.90;;;;;;;9.42;100.00;101099.91;5007701;28;20053;-65
2022/12/24 11:10:40;;;;;;;22.00;6.43;;;;;;;9.42;100.00;101113.72;5010305;28;20034;-65
2022/12/24 11:13:22;;;;;;;25.42;7.85;;;;;;;9.40;100.00;101106.72;5016580;28;20088;-65
2022/12/24 11:15:50;;;;;;;;;;;;;;;9.37;100.00;101116.13;5021116;28;20022;-65
2022/12/24 11:18:15;;;;;;;27.75;7.22;;;;;;;9.33;100.00;101114.25;5008418;28;20006;-65
2022/12/24 11:20:49;;;;;;;30.17;7.95;;;;;;;9.31;100.00;101113.28;5010053;28;20494;-65
2022/12/24 11:23:16;;;;;;;26.58;7.72;;;;;;;9.32;100.00;101114.16;5009487;28;20121;-65
2022/12/24 11:25:47;;;;;;;23.40;7.20;;;;;;;9.33;100.00;101103.91;5022066;28;20029;-64
2022/12/24 11:28:21;;;;;;;25.02;7.88;;;;;;;9.37;100.00;101112.66;5017406;28;20033;-65
2022/12/24 11:31:18;;;;;;;27.30;7.75;;;;;;;9.40;100.00;101124.81;5009662;28;20088;-64